Time;durP1;ratioP1;P1;durP2;ratioP2;P2;SDS_P1;SDS_P2;PMS_P1;PMS_P2;Temp;Humidity;BMP_temperature;BMP_pressure;BME280_temperature;BME280_humidity;BME280_pressure;Samples;Min_cycle;Max_cycle;Signal;HPM_P1;HPM_P2
2023/05/25 00:00:55;;;;;;;5.80;2.03;;;;;;;12.77;56.11;101005.53;10306604;28;20057;-59
2023/05/25 00:06:04;;;;;;;8.02;3.47;;;;;;;12.70;56.56;101010.78;10306090;28;20149;-58
2023/05/25 00:11:05;;;;;;;5.90;2.05;;;;;;;12.63;56.63;101007.09;10304428;28;20054;-58
2023/05/25 00:16:07;;;;;;;9.10;2.70;;;;;;;12.57;57.29;100999.69;10299706;28;20039;-59
2023/05/25 00:21:09;;;;;;;7.57;1.98;;;;;;;12.52;57.35;101012.84;10304633;28;20053;-58
2023/05/25 00:26:10;;;;;;;8.60;2.90;;;;;;;12.47;57.76;101003.41;10308250;28;20418;-59
2023/05/25 00:31:12;;;;;;;13.07;3.10;;;;;;;12.47;58.06;101006.09;10303579;28;20058;-59
2023/05/25 00:36:13;;;;;;;8.35;2.38;;;;;;;12.41;58.05;100995.19;10308031;28;20106;-58
2023/05/25 00:41:18;;;;;;;9.70;3.15;;;;;;;12.44;58.48;100992.13;10304494;28;20046;-58
2023/05/25 00:46:21;;;;;;;10.25;3.47;;;;;;;12.43;58.42;100993.16;10306008;28;20490;-57
2023/05/25 00:51:24;;;;;;;11.10;3.58;;;;;;;12.40;58.71;100994.34;10306335;28;20530;-57
2023/05/25 00:56:31;;;;;;;10.18;2.63;;;;;;;12.33;59.31;100993.34;10309120;28;20051;-59
2023/05/25 01:01:38;;;;;;;14.60;4.00;;;;;;;12.34;59.02;100988.78;10306797;28;20042;-57
2023/05/25 01:06:45;;;;;;;9.75;4.18;;;;;;;12.25;59.79;100987.97;10310068;28;20050;-58
2023/05/25 01:11:50;;;;;;;15.00;4.28;;;;;;;12.26;59.56;100981.56;10312334;28;20532;-57
2023/05/25 01:16:53;;;;;;;14.70;3.50;;;;;;;12.27;60.05;100983.25;10308781;28;20049;-60
2023/05/25 01:22:03;;;;;;;12.18;4.60;;;;;;;12.18;59.85;100984.25;10315582;28;20044;-61
2023/05/25 01:27:42;;;;;;;11.48;4.18;;;;;;;12.19;60.05;100977.88;10315046;28;20039;-58
2023/05/25 01:32:44;;;;;;;10.98;4.18;;;;;;;12.21;60.15;100989.34;10318851;28;20046;-60
2023/05/25 01:37:47;;;;;;;8.55;3.65;;;;;;;12.16;60.61;100994.38;10313314;28;20486;-60
2023/05/25 01:42:48;;;;;;;13.13;3.85;;;;;;;12.12;60.75;100996.56;10312318;28;20055;-59
2023/05/25 01:48:14;;;;;;;10.07;4.10;;;;;;;12.09;61.07;100989.66;10308719;28;20062;-59
2023/05/25 01:53:22;;;;;;;10.23;3.70;;;;;;;12.16;61.13;100989.81;10311458;28;20043;-60
2023/05/25 01:58:26;;;;;;;14.98;4.20;;;;;;;12.15;61.30;100987.31;10310458;28;20046;-58
2023/05/25 02:03:27;;;;;;;12.45;4.10;;;;;;;12.18;61.12;100992.34;10307794;28;20133;-60
2023/05/25 02:08:29;;;;;;;11.35;4.35;;;;;;;12.19;60.75;100994.06;10312870;28;20524;-59
2023/05/25 02:13:30;;;;;;;16.77;5.00;;;;;;;12.14;60.92;100988.31;10307144;28;20046;-59
2023/05/25 02:18:33;;;;;;;12.02;4.15;;;;;;;12.11;61.23;100989.50;10310024;28;20038;-60
2023/05/25 02:23:34;;;;;;;8.95;4.10;;;;;;;12.09;61.40;100997.75;10308595;28;20050;-59
2023/05/25 02:28:35;;;;;;;10.02;3.90;;;;;;;12.13;61.08;100990.19;10308288;28;20046;-60
2023/05/25 02:33:37;;;;;;;13.13;6.07;;;;;;;12.10;61.38;100987.81;10312883;28;20050;-59
2023/05/25 02:38:38;;;;;;;10.40;3.80;;;;;;;12.08;61.22;100985.31;10315094;28;20041;-60
2023/05/25 02:43:40;;;;;;;13.35;4.53;;;;;;;12.08;61.38;100981.75;10312184;28;20038;-59
2023/05/25 02:48:42;;;;;;;12.32;5.38;;;;;;;12.01;61.77;100976.22;10311490;28;20046;-58
2023/05/25 02:53:43;;;;;;;14.50;4.50;;;;;;;12.06;61.34;100990.00;10311167;28;20054;-58
2023/05/25 02:58:44;;;;;;;14.10;4.50;;;;;;;12.00;61.88;100976.38;10307779;28;20062;-58
2023/05/25 03:03:50;;;;;;;11.63;4.43;;;;;;;11.91;62.01;100980.94;10288682;28;20326;-59
2023/05/25 03:08:52;;;;;;;13.60;4.65;;;;;;;11.85;61.81;100984.28;10304119;28;20132;-58
2023/05/25 03:13:53;;;;;;;13.73;5.07;;;;;;;11.92;62.08;100987.16;10308448;28;20050;-59
2023/05/25 03:18:55;;;;;;;14.52;5.70;;;;;;;11.93;61.72;100988.81;10302792;28;20042;-60
2023/05/25 03:23:58;;;;;;;19.42;6.28;;;;;;;11.88;61.92;100990.16;10306792;28;20066;-58
2023/05/25 03:28:59;;;;;;;12.98;5.45;;;;;;;11.84;61.80;100990.66;10300530;28;20075;-60
2023/05/25 03:34:05;;;;;;;19.77;4.97;;;;;;;11.76;61.85;101002.28;10294475;28;20045;-58
2023/05/25 03:39:08;;;;;;;8.85;4.57;;;;;;;11.74;61.82;100998.06;10300102;28;20062;-60
2023/05/25 03:44:10;;;;;;;11.75;5.13;;;;;;;11.68;61.84;101005.81;10304854;28;20054;-59
2023/05/25 03:49:12;;;;;;;10.80;4.97;;;;;;;11.72;62.09;101014.41;10301999;28;20046;-59
2023/05/25 03:54:14;;;;;;;11.05;4.93;;;;;;;11.69;62.05;101004.81;10300367;28;20069;-62
2023/05/25 03:59:17;;;;;;;14.80;6.43;;;;;;;11.69;62.06;101012.88;10300265;28;20047;-60
2023/05/25 04:04:19;;;;;;;16.20;5.32;;;;;;;11.68;62.08;101015.75;10298733;28;20050;-63
2023/05/25 04:09:20;;;;;;;17.27;5.40;;;;;;;11.65;62.10;101016.06;10301821;28;20133;-61
2023/05/25 04:14:22;;;;;;;18.52;5.13;;;;;;;11.67;62.52;101022.97;10301652;28;20054;-58
2023/05/25 04:19:23;;;;;;;18.52;5.28;;;;;;;11.71;62.38;101031.59;10283686;28;20045;-59
2023/05/25 04:24:25;;;;;;;13.80;4.55;;;;;;;11.77;62.62;101039.00;10287498;28;20061;-59
2023/05/25 04:29:27;;;;;;;14.82;5.47;;;;;;;11.77;62.92;101040.81;10284445;28;20373;-59
2023/05/25 04:34:28;;;;;;;13.02;5.15;;;;;;;11.81;62.91;101053.81;10303886;28;20034;-61
2023/05/25 04:39:31;;;;;;;13.73;5.78;;;;;;;11.90;63.23;101060.91;10304260;28;20043;-67
2023/05/25 04:44:33;;;;;;;13.63;5.35;;;;;;;12.05;63.15;101069.19;10300864;28;20524;-71
2023/05/25 04:49:34;;;;;;;17.23;5.45;;;;;;;12.15;62.99;101066.31;10303856;28;20047;-71
2023/05/25 04:54:36;;;;;;;10.07;4.78;;;;;;;12.19;63.02;101070.34;10300483;28;20137;-68
2023/05/25 04:59:37;;;;;;;16.25;5.45;;;;;;;12.27;62.81;101072.22;10297314;28;20675;-67
2023/05/25 05:04:40;;;;;;;11.18;5.22;;;;;;;12.38;62.75;101074.56;10305615;28;20105;-65
2023/05/25 05:09:41;;;;;;;16.92;5.93;;;;;;;12.48;62.90;101087.88;10302670;28;20508;-69
2023/05/25 05:14:42;;;;;;;15.80;4.80;;;;;;;12.59;63.07;101081.28;10303822;28;20144;-67
2023/05/25 05:19:44;;;;;;;16.98;5.63;;;;;;;12.74;63.07;101093.06;10301401;28;20042;-70
2023/05/25 05:24:45;;;;;;;15.15;5.70;;;;;;;12.91;62.63;101093.84;10303929;28;20131;-71
2023/05/25 05:29:47;;;;;;;11.23;4.78;;;;;;;13.06;62.90;101097.50;10304127;28;20096;-66
2023/05/25 05:34:48;;;;;;;13.43;5.55;;;;;;;13.18;62.38;101097.13;10303595;28;20062;-71
2023/05/25 05:39:51;;;;;;;15.10;5.85;;;;;;;13.29;62.60;101103.03;10306434;28;20711;-69
2023/05/25 05:44:53;;;;;;;18.27;5.03;;;;;;;13.40;62.31;101112.59;10302459;28;20051;-70
2023/05/25 05:49:54;;;;;;;15.43;5.47;;;;;;;13.52;62.35;101118.44;10303528;28;20050;-69
2023/05/25 05:54:56;;;;;;;10.80;4.78;;;;;;;13.68;61.98;101128.31;10285945;28;20149;-66
2023/05/25 05:59:57;;;;;;;14.63;5.97;;;;;;;13.74;61.88;101130.31;10298569;28;20536;-69
2023/05/25 06:05:00;;;;;;;11.50;5.22;;;;;;;13.82;61.67;101129.41;10306911;28;20441;-69
2023/05/25 06:10:01;;;;;;;12.70;5.32;;;;;;;13.94;61.13;101133.44;10309883;28;20057;-66
2023/05/25 06:15:03;;;;;;;14.20;5.97;;;;;;;14.11;60.81;101127.91;10300997;28;20053;-66
2023/05/25 06:20:05;;;;;;;12.98;6.22;;;;;;;14.17;60.94;101140.69;10302141;28;20058;-69
2023/05/25 06:25:09;;;;;;;11.73;5.95;;;;;;;14.35;60.55;101132.28;10303142;28;20047;-66
2023/05/25 06:30:10;;;;;;;18.20;6.18;;;;;;;14.46;60.35;101145.38;10301759;28;20480;-68
2023/05/25 06:35:18;;;;;;;15.88;6.10;;;;;;;14.65;59.79;101149.44;10302447;28;20042;-68
2023/05/25 06:40:19;;;;;;;15.07;5.88;;;;;;;14.69;59.96;101142.66;10298446;28;20104;-69
2023/05/25 06:45:21;;;;;;;14.02;6.00;;;;;;;14.73;59.70;101145.84;10304415;28;20039;-69
2023/05/25 06:50:22;;;;;;;13.52;5.78;;;;;;;14.78;59.64;101140.72;10304521;28;20509;-69
2023/05/25 06:55:24;;;;;;;16.08;6.85;;;;;;;14.81;59.71;101152.03;10297971;28;20054;-67
2023/05/25 07:00:25;;;;;;;14.25;6.28;;;;;;;14.96;59.25;101148.50;10299305;28;20051;-68
2023/05/25 07:05:27;;;;;;;12.93;5.43;;;;;;;15.10;59.03;101149.53;10285937;28;20042;-66
2023/05/25 07:10:28;;;;;;;16.45;6.28;;;;;;;15.20;58.84;101137.38;10293944;28;20401;-66
2023/05/25 07:15:30;;;;;;;13.38;5.72;;;;;;;15.33;58.14;101131.31;10303985;28;20054;-66
2023/05/25 07:20:32;;;;;;;21.38;5.55;;;;;;;15.59;57.78;101125.38;10302335;28;20046;-64
2023/05/25 07:25:36;;;;;;;8.55;4.03;;;;;;;15.74;57.59;101125.41;10297249;28;20082;-66
2023/05/25 07:30:39;;;;;;;11.18;4.20;;;;;;;15.85;57.04;101124.03;10306471;28;20046;-69
2023/05/25 07:35:40;;;;;;;8.18;4.07;;;;;;;16.08;56.49;101131.19;10303950;28;20042;-69
2023/05/25 07:40:45;;;;;;;16.17;4.20;;;;;;;16.30;55.81;101124.72;10303694;28;20442;-66
2023/05/25 07:45:47;;;;;;;11.85;4.43;;;;;;;16.41;55.55;101126.03;10296618;28;20046;-66
2023/05/25 07:50:48;;;;;;;8.57;3.17;;;;;;;16.58;54.95;101130.16;10299551;28;20053;-67
2023/05/25 07:55:50;;;;;;;9.63;3.72;;;;;;;16.73;54.67;101137.41;10300486;28;20050;-68
2023/05/25 08:00:51;;;;;;;7.28;2.90;;;;;;;16.80;53.92;101124.69;10310320;28;20151;-69
2023/05/25 08:05:53;;;;;;;10.30;3.20;;;;;;;16.83;53.52;101125.19;10300646;28;20057;-70
2023/05/25 08:10:54;;;;;;;12.73;4.10;;;;;;;17.10;52.93;101127.22;10300407;28;20046;-69
2023/05/25 08:15:55;;;;;;;7.15;2.53;;;;;;;17.28;52.11;101126.69;10304999;28;20057;-70
2023/05/25 08:20:57;;;;;;;7.35;3.10;;;;;;;17.35;52.19;101131.13;10309773;28;20409;-70
2023/05/25 08:25:58;;;;;;;8.73;2.38;;;;;;;17.56;51.70;101129.34;10305633;28;20046;-68
2023/05/25 08:31:02;;;;;;;8.05;3.58;;;;;;;17.68;51.33;101130.44;10311002;28;20061;-67
2023/05/25 08:36:04;;;;;;;6.22;1.92;;;;;;;17.75;50.42;101133.16;10312745;28;20633;-67
2023/05/25 08:41:06;;;;;;;5.40;1.90;;;;;;;17.81;50.03;101116.03;10306334;28;20081;-69
2023/05/25 08:46:08;;;;;;;5.70;2.30;;;;;;;17.96;49.51;101124.06;10304583;28;20042;-69
2023/05/25 08:51:12;;;;;;;6.53;1.90;;;;;;;18.14;49.28;101118.03;10304404;28;20114;-69
2023/05/25 08:56:19;;;;;;;7.22;1.80;;;;;;;18.38;48.26;101127.47;10302561;28;20444;-69
2023/05/25 09:01:26;;;;;;;7.75;2.13;;;;;;;18.50;47.89;101136.69;10314600;28;20050;-66
2023/05/25 09:06:28;;;;;;;;;;;;;;;18.55;48.24;101134.19;10306067;28;20071;-65
2023/05/25 09:11:31;;;;;;;9.73;3.10;;;;;;;18.77;47.31;101125.78;10304207;28;19925;-64
2023/05/25 09:16:41;;;;;;;4.53;2.05;;;;;;;18.88;46.71;101133.34;10304486;28;20053;-65
2023/05/25 09:21:43;;;;;;;5.20;2.08;;;;;;;18.83;46.33;101135.88;10296791;28;20558;-68
2023/05/25 09:26:47;;;;;;;5.53;2.20;;;;;;;18.98;45.75;101146.56;10304470;28;20105;-65
2023/05/25 09:31:49;;;;;;;4.38;1.83;;;;;;;19.14;45.40;101139.81;10303814;28;20058;-65
2023/05/25 09:36:51;;;;;;;3.92;1.83;;;;;;;19.30;44.76;101149.41;10302814;28;20406;-65
2023/05/25 09:41:53;;;;;;;5.07;1.77;;;;;;;19.46;44.65;101150.81;10300013;28;20054;-65
2023/05/25 09:46:55;;;;;;;5.25;1.70;;;;;;;19.59;44.23;101145.34;10305750;28;20059;-68
2023/05/25 09:51:56;;;;;;;3.75;1.20;;;;;;;19.70;43.94;101131.00;10306166;28;20046;-66
2023/05/25 09:57:04;;;;;;;2.85;1.60;;;;;;;19.83;43.16;101146.50;10304304;28;20077;-63
2023/05/25 10:02:05;;;;;;;4.20;1.65;;;;;;;19.91;43.15;101140.78;10306066;28;20101;-64
2023/05/25 10:07:07;;;;;;;6.43;2.25;;;;;;;20.12;42.63;101136.91;10302964;28;20109;-63
2023/05/25 10:12:10;;;;;;;5.07;1.45;;;;;;;20.27;42.36;101135.75;10307434;28;20046;-67
2023/05/25 10:17:17;;;;;;;2.78;1.30;;;;;;;20.43;41.43;101137.91;10300194;28;20132;-63
2023/05/25 10:22:25;;;;;;;4.93;1.17;;;;;;;20.58;40.74;101134.88;10297873;28;20051;-66
2023/05/25 10:27:33;;;;;;;4.55;1.20;;;;;;;20.81;40.53;101131.53;10302141;28;20042;-65
2023/05/25 10:32:36;;;;;;;5.40;1.90;;;;;;;20.98;39.89;101134.53;10301314;28;20043;-63
2023/05/25 10:37:39;;;;;;;6.25;1.55;;;;;;;21.29;39.72;101124.53;10303906;28;20043;-65
2023/05/25 10:42:40;;;;;;;2.38;1.30;;;;;;;21.71;39.58;101124.66;10300106;28;20084;-63
2023/05/25 10:47:42;;;;;;;4.10;1.23;;;;;;;21.92;39.41;101132.38;10281287;28;20405;-60
2023/05/25 10:52:44;;;;;;;5.93;1.67;;;;;;;22.05;38.52;101125.84;10302667;28;20051;-64
2023/05/25 10:57:45;;;;;;;9.13;2.55;;;;;;;22.29;38.59;101124.03;10305019;28;20034;-63
2023/05/25 11:02:54;;;;;;;5.45;1.35;;;;;;;22.55;37.93;101113.72;10290780;28;20090;-64
2023/05/25 11:07:57;;;;;;;5.43;0.98;;;;;;;22.78;37.46;101112.91;10305390;28;20098;-65
2023/05/25 11:13:30;;;;;;;4.18;1.73;;;;;;;22.85;37.11;101112.78;10302117;28;20053;-66
2023/05/25 11:18:40;;;;;;;4.57;1.52;;;;;;;22.93;36.46;101116.00;10297394;28;20390;-66
2023/05/25 11:23:56;;;;;;;2.78;1.55;;;;;;;23.16;36.49;101103.34;10300683;28;20051;-65
2023/05/25 11:29:00;;;;;;;7.37;1.70;;;;;;;23.39;36.13;101101.66;10300441;28;20042;-65
2023/05/25 11:34:03;;;;;;;4.45;1.45;;;;;;;23.29;35.81;101091.28;10298710;28;20050;-63
2023/05/25 11:39:05;;;;;;;3.85;1.70;;;;;;;23.30;35.43;101079.22;10296424;28;20046;-66
2023/05/25 11:44:27;;;;;;;3.70;1.40;;;;;;;23.27;34.94;101090.69;10285999;28;20046;-64
2023/05/25 11:49:28;;;;;;;4.88;1.58;;;;;;;23.58;35.29;101083.94;10300305;28;20051;-64
2023/05/25 11:54:30;;;;;;;4.03;1.95;;;;;;;23.76;34.87;101074.66;10300937;28;20383;-64
2023/05/25 11:59:31;;;;;;;3.13;1.23;;;;;;;24.17;34.30;101082.81;10304117;28;20046;-67
2023/05/25 12:04:33;;;;;;;5.53;1.42;;;;;;;24.50;34.09;101073.72;10301599;28;20035;-62
2023/05/25 12:09:35;;;;;;;4.80;1.85;;;;;;;24.81;33.97;101079.72;10296901;28;20039;-64
2023/05/25 12:14:47;;;;;;;5.20;1.40;;;;;;;24.96;33.53;101065.34;10300241;28;20054;-66
2023/05/25 12:19:49;;;;;;;7.50;2.97;;;;;;;25.32;32.55;101066.69;10295165;28;20050;-63
2023/05/25 12:24:50;;;;;;;3.92;1.50;;;;;;;25.73;32.01;101064.34;10301535;28;20051;-65
2023/05/25 12:29:52;;;;;;;4.03;1.92;;;;;;;26.05;31.90;101058.91;10295786;28;20406;-66
2023/05/25 12:35:04;;;;;;;2.85;1.73;;;;;;;26.18;31.13;101054.88;10294175;28;20066;-66
2023/05/25 12:40:27;;;;;;;4.65;1.33;;;;;;;26.49;30.48;101052.38;10298901;28;20820;-67
2023/05/25 12:45:28;;;;;;;5.70;1.50;;;;;;;26.62;30.62;101049.19;10277101;28;20043;-65
2023/05/25 12:50:30;;;;;;;4.65;1.88;;;;;;;27.03;30.37;101051.31;10297059;28;20458;-64
2023/05/25 12:55:34;;;;;;;6.03;1.88;;;;;;;27.17;29.94;101038.66;10299515;28;20050;-65
2023/05/25 13:00:37;;;;;;;5.32;1.67;;;;;;;26.98;29.86;101037.50;10301142;28;20138;-66
2023/05/25 13:05:39;;;;;;;4.60;2.17;;;;;;;27.36;29.12;101047.34;10306945;28;20042;-65
2023/05/25 13:10:40;;;;;;;4.07;1.58;;;;;;;27.29;29.56;101038.47;10309576;28;20197;-58
2023/05/25 13:15:43;;;;;;;5.63;1.15;;;;;;;27.01;29.92;101042.47;10305324;28;20081;-59
2023/05/25 13:20:45;;;;;;;5.25;1.92;;;;;;;27.31;29.56;101027.97;10298311;28;20046;-60
2023/05/25 13:25:51;;;;;;;3.20;1.25;;;;;;;27.30;29.57;101026.34;10284742;28;20595;-61
2023/05/25 13:30:52;;;;;;;5.18;1.70;;;;;;;27.30;29.24;101035.44;10305021;28;20486;-58
2023/05/25 13:35:57;;;;;;;5.50;1.90;;;;;;;27.65;28.41;101027.53;10304796;28;20043;-59
2023/05/25 13:40:59;;;;;;;4.60;2.33;;;;;;;28.16;28.04;101018.44;10300337;28;20050;-58
2023/05/25 13:46:01;;;;;;;4.45;1.85;;;;;;;28.70;27.62;101019.78;10303375;28;20611;-59
2023/05/25 13:51:03;;;;;;;6.75;2.13;;;;;;;29.64;26.60;101017.09;10302120;28;20042;-58
2023/05/25 13:56:05;;;;;;;4.50;1.52;;;;;;;30.61;26.02;101013.53;10302556;28;20078;-60
2023/05/25 14:01:06;;;;;;;3.97;1.70;;;;;;;32.06;24.04;101015.19;10312002;28;20132;-59
2023/05/25 14:06:08;;;;;;;5.05;2.42;;;;;;;32.63;23.12;101006.63;10305331;28;20046;-60
2023/05/25 14:11:09;;;;;;;6.68;2.15;;;;;;;32.61;23.05;101006.94;10302575;28;20492;-58
2023/05/25 14:16:11;;;;;;;4.47;1.75;;;;;;;31.05;24.23;101006.06;10302550;28;20517;-59
2023/05/25 14:21:12;;;;;;;6.22;2.13;;;;;;;30.23;25.25;101004.16;10286347;28;20073;-58
2023/05/25 14:26:14;;;;;;;2.97;1.52;;;;;;;29.75;25.62;101009.59;10298713;28;20489;-59
2023/05/25 14:31:15;;;;;;;4.93;1.83;;;;;;;30.05;26.01;101002.94;10304626;28;20042;-59
2023/05/25 14:36:17;;;;;;;2.95;1.42;;;;;;;30.38;24.81;100998.50;10300241;28;20125;-59
2023/05/25 14:41:18;;;;;;;5.70;1.75;;;;;;;30.40;24.29;100998.22;10298484;28;20050;-59
2023/05/25 14:46:19;;;;;;;4.32;1.95;;;;;;;30.74;23.86;101000.88;10297146;28;20513;-61
2023/05/25 14:51:21;;;;;;;7.50;1.90;;;;;;;30.21;24.33;100995.31;10302395;28;20512;-58
2023/05/25 14:56:23;;;;;;;8.13;1.92;;;;;;;29.76;24.69;100984.34;10303265;28;20035;-59
2023/05/25 15:01:25;;;;;;;2.58;1.42;;;;;;;30.02;24.83;100990.50;10305684;28;20134;-60
2023/05/25 15:06:26;;;;;;;4.20;1.75;;;;;;;30.09;24.97;100994.88;10300286;28;20050;-61
2023/05/25 15:11:27;;;;;;;6.45;1.65;;;;;;;29.67;25.54;100994.38;10297796;28;20062;-59
2023/05/25 15:16:29;;;;;;;3.97;1.63;;;;;;;29.81;24.99;100984.28;10300981;28;20077;-59
2023/05/25 15:21:30;;;;;;;4.65;1.85;;;;;;;29.98;24.98;100986.66;10296161;28;20050;-61
2023/05/25 15:26:32;;;;;;;3.63;1.83;;;;;;;29.60;25.13;100989.16;10292821;28;20606;-59
2023/05/25 15:31:33;;;;;;;2.33;1.80;;;;;;;29.23;25.13;100996.03;10289982;28;20050;-59
2023/05/25 15:36:36;;;;;;;1.90;1.58;;;;;;;28.97;25.85;100992.53;10291840;28;20049;-60
2023/05/25 15:41:37;;;;;;;4.28;1.65;;;;;;;29.11;25.52;101001.06;10299577;28;20061;-59
2023/05/25 15:46:39;;;;;;;6.97;1.73;;;;;;;28.62;26.24;100988.78;10302922;28;20692;-59
2023/05/25 15:51:42;;;;;;;4.97;1.65;;;;;;;28.91;25.95;100988.16;10288659;28;20074;-59
2023/05/25 15:56:44;;;;;;;4.05;2.10;;;;;;;29.13;25.75;100990.56;10291155;28;20066;-61
2023/05/25 16:01:45;;;;;;;4.38;1.42;;;;;;;29.25;25.73;100984.69;10305256;28;20310;-59
2023/05/25 16:06:47;;;;;;;9.18;1.88;;;;;;;29.21;25.63;100983.59;10295207;28;20054;-59
2023/05/25 16:11:49;;;;;;;6.13;1.42;;;;;;;29.14;25.81;100983.88;10292306;28;20054;-60
2023/05/25 16:16:50;;;;;;;4.95;1.50;;;;;;;29.21;25.45;100983.59;10293990;28;20058;-59
2023/05/25 16:21:52;;;;;;;3.30;1.40;;;;;;;29.03;25.54;100988.63;10291658;28;20046;-59
2023/05/25 16:26:53;;;;;;;4.78;1.92;;;;;;;29.07;25.79;100981.41;10296213;28;20042;-59
2023/05/25 16:31:55;;;;;;;4.18;1.58;;;;;;;29.45;25.30;100984.53;10292769;28;21592;-59
2023/05/25 16:36:57;;;;;;;2.45;1.60;;;;;;;29.52;24.64;100981.44;10301632;28;20054;-61
2023/05/25 16:41:58;;;;;;;4.07;1.70;;;;;;;29.63;23.89;100982.19;10294150;28;20050;-59
2023/05/25 16:46:59;;;;;;;3.45;1.30;;;;;;;29.89;24.27;100977.31;10278377;28;20946;-59
2023/05/25 16:52:01;;;;;;;6.22;1.90;;;;;;;29.87;23.82;100970.41;10301261;28;20665;-60
2023/05/25 16:57:03;;;;;;;2.75;1.60;;;;;;;29.76;24.11;100972.41;10307014;28;20053;-60
2023/05/25 17:02:04;;;;;;;6.88;2.00;;;;;;;29.94;23.26;100976.41;10302159;28;20096;-59
2023/05/25 17:07:06;;;;;;;3.38;1.65;;;;;;;29.91;22.85;100977.03;10301029;28;20053;-60
2023/05/25 17:12:07;;;;;;;1.77;1.30;;;;;;;29.63;22.99;100971.94;10299137;28;20077;-64
2023/05/25 17:17:09;;;;;;;2.88;1.35;;;;;;;29.97;23.10;100973.06;10302042;28;20054;-67
2023/05/25 17:22:10;;;;;;;3.70;1.25;;;;;;;29.46;22.68;100974.28;10292728;28;20057;-66
2023/05/25 17:27:12;;;;;;;3.40;1.40;;;;;;;29.48;22.78;100974.00;10293541;28;21373;-65
2023/05/25 17:32:14;;;;;;;4.22;1.70;;;;;;;29.35;23.07;100975.47;10299454;28;20062;-68
2023/05/25 17:37:15;;;;;;;2.95;1.33;;;;;;;28.99;23.23;100972.84;10286649;28;20053;-66
2023/05/25 17:42:19;;;;;;;6.97;1.58;;;;;;;29.00;23.42;100974.53;10302909;28;20411;-65
2023/05/25 17:47:21;;;;;;;4.03;1.88;;;;;;;28.83;23.42;100978.50;10302276;28;20070;-68
2023/05/25 17:52:22;;;;;;;3.13;1.55;;;;;;;28.54;24.08;100977.50;10309569;28;20046;-68
2023/05/25 17:57:24;;;;;;;5.18;1.92;;;;;;;28.49;24.91;100983.81;10311789;28;20049;-66
2023/05/25 18:02:28;;;;;;;5.32;1.77;;;;;;;28.14;25.54;100982.81;10312105;28;20057;-64
2023/05/25 18:07:30;;;;;;;6.05;1.80;;;;;;;27.14;26.96;100992.31;10308304;28;20034;-65
2023/05/25 18:12:31;;;;;;;4.70;2.00;;;;;;;26.22;28.41;100998.13;10306473;28;20416;-67
2023/05/25 18:17:33;;;;;;;5.18;1.92;;;;;;;25.52;28.97;101009.09;10294995;28;20050;-69
2023/05/25 18:22:35;;;;;;;6.32;2.53;;;;;;;24.74;29.98;101005.63;10280087;28;20062;-68
2023/05/25 18:27:36;;;;;;;4.10;1.88;;;;;;;23.93;31.72;101008.78;10304524;28;20046;-66
2023/05/25 18:32:38;;;;;;;4.90;2.22;;;;;;;23.50;32.48;100999.22;10285404;28;20516;-66
2023/05/25 18:37:39;;;;;;;6.55;1.95;;;;;;;23.04;33.56;101014.78;10295970;28;20145;-67
2023/05/25 18:42:41;;;;;;;5.35;2.13;;;;;;;22.64;34.25;101015.56;10293296;28;21394;-68
2023/05/25 18:47:42;;;;;;;5.72;1.45;;;;;;;22.18;35.01;101013.38;10296361;28;20632;-68
2023/05/25 18:52:49;;;;;;;9.43;1.98;;;;;;;21.78;35.66;101011.28;10299246;28;20049;-68
2023/05/25 18:57:50;;;;;;;5.78;2.03;;;;;;;21.41;36.63;101020.66;10293531;28;20071;-69
2023/05/25 19:02:52;;;;;;;7.32;1.70;;;;;;;21.22;36.76;101028.88;10297245;28;20054;-67
2023/05/25 19:07:53;;;;;;;2.67;1.58;;;;;;;20.90;37.94;101031.78;10303205;28;20045;-69
2023/05/25 19:13:00;;;;;;;5.75;2.10;;;;;;;20.60;38.35;101035.25;10294464;28;20564;-65
2023/05/25 19:18:02;;;;;;;3.53;1.88;;;;;;;20.40;39.04;101032.69;10287920;28;20050;-66
2023/05/25 19:23:04;;;;;;;4.88;1.55;;;;;;;20.13;39.50;101044.91;10290412;28;20058;-65
2023/05/25 19:28:05;;;;;;;3.53;1.17;;;;;;;19.87;40.08;101051.41;10293205;28;20086;-64
2023/05/25 19:33:07;;;;;;;5.07;2.15;;;;;;;19.67;40.66;101059.66;10292652;28;20047;-61
2023/05/25 19:38:08;;;;;;;5.03;1.63;;;;;;;19.58;40.74;101059.91;10290936;28;20057;-63
2023/05/25 19:43:10;;;;;;;6.00;1.80;;;;;;;19.38;41.30;101078.28;10296754;28;20044;-60
2023/05/25 19:48:11;;;;;;;6.50;1.90;;;;;;;19.24;41.64;101084.84;10297004;28;20042;-61
2023/05/25 19:53:13;;;;;;;7.57;2.45;;;;;;;19.04;42.18;101088.47;10293585;28;20042;-60
2023/05/25 19:58:14;;;;;;;9.80;1.70;;;;;;;18.87;42.56;101104.41;10275120;28;20064;-61
2023/05/25 20:03:17;;;;;;;6.78;2.25;;;;;;;18.75;42.96;101106.09;10292805;28;20521;-61
2023/05/25 20:08:18;;;;;;;5.18;2.25;;;;;;;18.63;43.18;101116.78;10283912;28;20042;-60
2023/05/25 20:13:20;;;;;;;4.43;1.77;;;;;;;18.52;43.69;101109.25;10309314;28;20413;-61
2023/05/25 20:18:22;;;;;;;6.63;2.70;;;;;;;18.38;44.06;101113.84;10306720;28;20058;-60
2023/05/25 20:23:24;;;;;;;8.15;2.35;;;;;;;18.26;44.49;101115.53;10287878;28;20042;-60
2023/05/25 20:28:25;;;;;;;6.28;2.60;;;;;;;18.16;44.89;101118.66;10306506;28;20046;-61
2023/05/25 20:33:27;;;;;;;9.15;2.78;;;;;;;18.00;45.52;101122.59;10306583;28;20058;-61
2023/05/25 20:38:28;;;;;;;6.15;2.47;;;;;;;17.93;45.72;101125.31;10306032;28;21411;-60
2023/05/25 20:43:30;;;;;;;6.30;2.40;;;;;;;17.79;46.00;101131.72;10291556;28;20046;-61
2023/05/25 20:48:31;;;;;;;5.68;2.63;;;;;;;17.63;46.62;101135.63;10307791;28;20057;-60
2023/05/25 20:53:32;;;;;;;9.25;3.00;;;;;;;17.59;46.67;101146.06;10280309;28;20046;-60
2023/05/25 20:58:36;;;;;;;5.45;3.40;;;;;;;17.50;46.82;101149.19;10292956;28;20054;-60
2023/05/25 21:03:38;;;;;;;8.52;3.05;;;;;;;17.40;47.52;101144.97;10292367;28;20054;-60
2023/05/25 21:08:40;;;;;;;7.35;4.00;;;;;;;17.28;47.41;101156.56;10305446;28;20050;-61
2023/05/25 21:13:41;;;;;;;5.90;3.00;;;;;;;17.13;47.85;101157.53;10303178;28;20742;-60
2023/05/25 21:18:43;;;;;;;7.20;3.17;;;;;;;17.00;48.22;101157.44;10299172;28;20053;-60
2023/05/25 21:23:44;;;;;;;9.63;3.90;;;;;;;16.91;48.48;101153.22;10295961;28;20142;-62
2023/05/25 21:28:46;;;;;;;9.70;3.75;;;;;;;16.85;48.42;101166.53;10302428;28;20042;-60
2023/05/25 21:33:47;;;;;;;11.43;3.75;;;;;;;16.77;48.62;101169.38;10305437;28;20046;-60
2023/05/25 21:38:49;;;;;;;8.07;4.00;;;;;;;16.68;48.90;101172.44;10304288;28;20811;-61
2023/05/25 21:43:50;;;;;;;10.65;4.38;;;;;;;16.56;49.34;101172.13;10295692;28;20062;-60
2023/05/25 21:48:52;;;;;;;11.50;4.00;;;;;;;16.45;49.39;101168.06;10299121;28;20150;-61
2023/05/25 21:53:53;;;;;;;9.75;4.25;;;;;;;16.33;49.82;101183.16;10304012;28;20050;-61
2023/05/25 21:58:55;;;;;;;13.70;5.05;;;;;;;16.22;50.11;101182.66;10301217;28;20050;-61
2023/05/25 22:03:56;;;;;;;11.45;5.65;;;;;;;16.16;50.04;101182.59;10303306;28;20042;-62
2023/05/25 22:08:58;;;;;;;11.63;4.13;;;;;;;16.16;50.14;101179.88;10306407;28;20445;-60
2023/05/25 22:14:01;;;;;;;9.50;4.60;;;;;;;16.09;50.23;101185.22;10294991;28;20204;-61
2023/05/25 22:19:03;;;;;;;9.15;4.75;;;;;;;15.97;50.45;101175.91;10294542;28;20046;-62
2023/05/25 22:24:05;;;;;;;8.43;4.32;;;;;;;15.90;50.87;101186.69;10306009;28;20046;-61
2023/05/25 22:29:07;;;;;;;12.20;4.75;;;;;;;15.85;50.75;101197.25;10307122;28;20640;-61
2023/05/25 22:34:08;;;;;;;11.52;4.47;;;;;;;15.77;50.83;101189.22;10296117;28;20395;-62
2023/05/25 22:39:10;;;;;;;12.30;5.18;;;;;;;15.71;50.99;101190.78;10296740;28;20375;-61
2023/05/25 22:44:11;;;;;;;7.05;4.60;;;;;;;15.72;50.85;101191.63;10299406;28;20042;-61
2023/05/25 22:49:13;;;;;;;6.45;3.90;;;;;;;15.70;51.06;101204.53;10298511;28;20046;-61
2023/05/25 22:54:14;;;;;;;6.68;3.90;;;;;;;15.68;51.05;101193.91;10300026;28;20054;-61
2023/05/25 22:59:15;;;;;;;8.23;3.28;;;;;;;15.60;51.28;101202.97;10299082;28;20065;-60
2023/05/25 23:04:17;;;;;;;6.72;3.42;;;;;;;15.56;51.28;101204.38;10298171;28;20129;-61